sensor_id;sensor_type;location;lat;lon;timestamp;P1;durP1;ratioP1;P2;durP2;ratioP2
14688;SDS011;7432;48.728;9.154;2024-01-11T00:01:18;35.07;;;24.07;;
14688;SDS011;7432;48.728;9.154;2024-01-11T00:03:45;38.93;;;26.13;;
14688;SDS011;7432;48.728;9.154;2024-01-11T00:06:11;38.53;;;25.37;;
14688;SDS011;7432;48.728;9.154;2024-01-11T00:08:37;40.03;;;25.40;;
14688;SDS011;7432;48.728;9.154;2024-01-11T00:11:04;38.07;;;24.87;;
14688;SDS011;7432;48.728;9.154;2024-01-11T00:13:30;43.17;;;26.30;;
14688;SDS011;7432;48.728;9.154;2024-01-11T00:15:57;39.13;;;25.33;;
14688;SDS011;7432;48.728;9.154;2024-01-11T00:18:24;39.30;;;26.10;;
14688;SDS011;7432;48.728;9.154;2024-01-11T00:20:51;37.43;;;25.90;;
14688;SDS011;7432;48.728;9.154;2024-01-11T00:23:17;39.17;;;26.03;;
14688;SDS011;7432;48.728;9.154;2024-01-11T00:25:44;40.13;;;25.60;;
14688;SDS011;7432;48.728;9.154;2024-01-11T00:28:10;37.70;;;25.67;;
14688;SDS011;7432;48.728;9.154;2024-01-11T00:30:36;39.27;;;24.63;;
14688;SDS011;7432;48.728;9.154;2024-01-11T00:33:03;38.83;;;26.00;;
14688;SDS011;7432;48.728;9.154;2024-01-11T00:35:31;38.50;;;25.20;;
14688;SDS011;7432;48.728;9.154;2024-01-11T00:37:57;41.90;;;26.70;;
14688;SDS011;7432;48.728;9.154;2024-01-11T00:40:23;42.10;;;27.57;;
14688;SDS011;7432;48.728;9.154;2024-01-11T00:42:50;38.00;;;25.20;;
14688;SDS011;7432;48.728;9.154;2024-01-11T00:45:16;36.53;;;25.90;;
14688;SDS011;7432;48.728;9.154;2024-01-11T00:47:43;41.53;;;27.50;;
14688;SDS011;7432;48.728;9.154;2024-01-11T00:50:09;38.00;;;25.73;;
14688;SDS011;7432;48.728;9.154;2024-01-11T00:52:37;40.50;;;26.73;;
14688;SDS011;7432;48.728;9.154;2024-01-11T00:55:04;37.67;;;25.27;;
14688;SDS011;7432;48.728;9.154;2024-01-11T00:57:32;40.13;;;25.03;;
14688;SDS011;7432;48.728;9.154;2024-01-11T00:59:58;40.17;;;27.23;;
14688;SDS011;7432;48.728;9.154;2024-01-11T01:02:24;41.90;;;27.30;;
14688;SDS011;7432;48.728;9.154;2024-01-11T01:04:51;37.53;;;25.13;;
14688;SDS011;7432;48.728;9.154;2024-01-11T01:07:17;36.20;;;25.50;;
14688;SDS011;7432;48.728;9.154;2024-01-11T01:09:45;40.23;;;27.30;;
14688;SDS011;7432;48.728;9.154;2024-01-11T01:12:11;39.33;;;26.67;;
14688;SDS011;7432;48.728;9.154;2024-01-11T01:14:38;40.17;;;25.80;;
14688;SDS011;7432;48.728;9.154;2024-01-11T01:17:04;41.50;;;26.83;;
14688;SDS011;7432;48.728;9.154;2024-01-11T01:19:31;42.93;;;26.50;;
14688;SDS011;7432;48.728;9.154;2024-01-11T01:21:57;41.17;;;26.13;;
14688;SDS011;7432;48.728;9.154;2024-01-11T01:24:23;44.43;;;26.50;;
14688;SDS011;7432;48.728;9.154;2024-01-11T01:26:51;41.73;;;26.10;;
14688;SDS011;7432;48.728;9.154;2024-01-11T01:29:17;41.73;;;26.90;;
14688;SDS011;7432;48.728;9.154;2024-01-11T01:31:44;42.87;;;27.20;;
14688;SDS011;7432;48.728;9.154;2024-01-11T01:34:10;42.63;;;27.07;;
14688;SDS011;7432;48.728;9.154;2024-01-11T01:36:37;38.10;;;25.97;;
14688;SDS011;7432;48.728;9.154;2024-01-11T01:39:03;37.60;;;25.50;;
14688;SDS011;7432;48.728;9.154;2024-01-11T01:41:29;41.40;;;27.37;;
14688;SDS011;7432;48.728;9.154;2024-01-11T01:43:57;41.87;;;27.33;;
14688;SDS011;7432;48.728;9.154;2024-01-11T01:46:23;43.40;;;26.93;;
14688;SDS011;7432;48.728;9.154;2024-01-11T01:48:51;46.17;;;26.53;;
14688;SDS011;7432;48.728;9.154;2024-01-11T01:51:20;38.73;;;25.10;;
14688;SDS011;7432;48.728;9.154;2024-01-11T01:53:47;46.30;;;26.50;;
14688;SDS011;7432;48.728;9.154;2024-01-11T01:56:16;40.03;;;26.63;;
14688;SDS011;7432;48.728;9.154;2024-01-11T01:58:42;43.77;;;27.43;;
14688;SDS011;7432;48.728;9.154;2024-01-11T02:01:10;43.77;;;27.53;;
14688;SDS011;7432;48.728;9.154;2024-01-11T02:03:37;39.40;;;27.67;;
14688;SDS011;7432;48.728;9.154;2024-01-11T02:06:04;40.77;;;26.00;;
14688;SDS011;7432;48.728;9.154;2024-01-11T02:08:31;43.10;;;26.47;;
14688;SDS011;7432;48.728;9.154;2024-01-11T02:10:58;44.17;;;27.57;;
14688;SDS011;7432;48.728;9.154;2024-01-11T02:13:26;44.53;;;27.77;;
14688;SDS011;7432;48.728;9.154;2024-01-11T02:15:52;44.43;;;26.77;;
14688;SDS011;7432;48.728;9.154;2024-01-11T02:18:20;43.23;;;27.97;;
14688;SDS011;7432;48.728;9.154;2024-01-11T02:20:46;46.03;;;29.07;;
14688;SDS011;7432;48.728;9.154;2024-01-11T02:23:14;43.27;;;26.70;;
14688;SDS011;7432;48.728;9.154;2024-01-11T02:25:45;41.20;;;26.27;;
14688;SDS011;7432;48.728;9.154;2024-01-11T02:28:12;39.93;;;26.40;;
14688;SDS011;7432;48.728;9.154;2024-01-11T02:30:38;47.00;;;26.30;;
14688;SDS011;7432;48.728;9.154;2024-01-11T02:33:04;41.77;;;27.07;;
14688;SDS011;7432;48.728;9.154;2024-01-11T02:35:31;42.67;;;27.17;;
14688;SDS011;7432;48.728;9.154;2024-01-11T02:37:59;41.53;;;27.27;;
14688;SDS011;7432;48.728;9.154;2024-01-11T02:40:26;42.80;;;26.37;;
14688;SDS011;7432;48.728;9.154;2024-01-11T02:42:54;44.40;;;28.13;;
14688;SDS011;7432;48.728;9.154;2024-01-11T02:45:20;39.63;;;26.33;;
14688;SDS011;7432;48.728;9.154;2024-01-11T02:47:47;43.73;;;25.77;;
14688;SDS011;7432;48.728;9.154;2024-01-11T02:50:13;44.17;;;27.10;;
14688;SDS011;7432;48.728;9.154;2024-01-11T02:52:39;39.73;;;26.37;;
14688;SDS011;7432;48.728;9.154;2024-01-11T02:55:06;41.50;;;27.13;;
14688;SDS011;7432;48.728;9.154;2024-01-11T02:57:33;45.20;;;27.83;;
14688;SDS011;7432;48.728;9.154;2024-01-11T03:00:01;45.43;;;28.10;;
14688;SDS011;7432;48.728;9.154;2024-01-11T03:02:28;43.37;;;26.77;;
14688;SDS011;7432;48.728;9.154;2024-01-11T03:04:54;44.73;;;27.37;;
14688;SDS011;7432;48.728;9.154;2024-01-11T03:07:20;46.40;;;28.33;;
14688;SDS011;7432;48.728;9.154;2024-01-11T03:09:47;42.87;;;27.17;;
14688;SDS011;7432;48.728;9.154;2024-01-11T03:12:13;46.10;;;29.03;;
14688;SDS011;7432;48.728;9.154;2024-01-11T03:14:39;44.33;;;26.83;;
14688;SDS011;7432;48.728;9.154;2024-01-11T03:17:07;42.73;;;26.63;;
14688;SDS011;7432;48.728;9.154;2024-01-11T03:19:33;41.17;;;26.83;;
14688;SDS011;7432;48.728;9.154;2024-01-11T03:22:00;38.33;;;25.33;;
14688;SDS011;7432;48.728;9.154;2024-01-11T03:24:31;44.63;;;26.37;;
14688;SDS011;7432;48.728;9.154;2024-01-11T03:26:57;47.63;;;27.53;;
14688;SDS011;7432;48.728;9.154;2024-01-11T03:29:23;47.97;;;28.37;;
14688;SDS011;7432;48.728;9.154;2024-01-11T03:31:50;43.10;;;27.93;;
14688;SDS011;7432;48.728;9.154;2024-01-11T03:34:17;42.23;;;27.70;;
14688;SDS011;7432;48.728;9.154;2024-01-11T03:36:44;43.03;;;27.90;;
14688;SDS011;7432;48.728;9.154;2024-01-11T03:39:10;40.87;;;26.47;;
14688;SDS011;7432;48.728;9.154;2024-01-11T03:41:36;44.57;;;28.87;;
14688;SDS011;7432;48.728;9.154;2024-01-11T03:44:03;44.10;;;27.07;;
14688;SDS011;7432;48.728;9.154;2024-01-11T03:46:29;41.10;;;25.23;;
14688;SDS011;7432;48.728;9.154;2024-01-11T03:48:55;43.33;;;27.17;;
14688;SDS011;7432;48.728;9.154;2024-01-11T03:51:23;42.53;;;25.97;;
14688;SDS011;7432;48.728;9.154;2024-01-11T03:53:49;44.10;;;27.70;;
14688;SDS011;7432;48.728;9.154;2024-01-11T03:56:16;43.93;;;27.83;;
14688;SDS011;7432;48.728;9.154;2024-01-11T03:58:42;41.87;;;26.23;;
14688;SDS011;7432;48.728;9.154;2024-01-11T04:01:09;43.40;;;27.93;;
14688;SDS011;7432;48.728;9.154;2024-01-11T04:03:36;39.90;;;26.80;;
14688;SDS011;7432;48.728;9.154;2024-01-11T04:06:03;41.60;;;27.63;;
14688;SDS011;7432;48.728;9.154;2024-01-11T04:08:30;44.37;;;26.93;;
14688;SDS011;7432;48.728;9.154;2024-01-11T04:10:57;45.17;;;27.67;;
14688;SDS011;7432;48.728;9.154;2024-01-11T04:13:23;48.07;;;28.30;;
14688;SDS011;7432;48.728;9.154;2024-01-11T04:15:50;45.73;;;29.13;;
14688;SDS011;7432;48.728;9.154;2024-01-11T04:18:16;41.90;;;26.93;;
14688;SDS011;7432;48.728;9.154;2024-01-11T04:20:42;40.67;;;26.97;;
14688;SDS011;7432;48.728;9.154;2024-01-11T04:23:09;43.30;;;28.50;;
14688;SDS011;7432;48.728;9.154;2024-01-11T04:25:36;41.80;;;26.93;;
14688;SDS011;7432;48.728;9.154;2024-01-11T04:28:03;43.77;;;28.23;;
14688;SDS011;7432;48.728;9.154;2024-01-11T04:30:29;40.03;;;26.60;;
14688;SDS011;7432;48.728;9.154;2024-01-11T04:32:55;42.73;;;27.40;;
14688;SDS011;7432;48.728;9.154;2024-01-11T04:35:21;45.80;;;29.93;;
14688;SDS011;7432;48.728;9.154;2024-01-11T04:37:48;40.67;;;26.63;;
14688;SDS011;7432;48.728;9.154;2024-01-11T04:40:14;40.10;;;27.77;;
14688;SDS011;7432;48.728;9.154;2024-01-11T04:42:42;43.87;;;28.27;;
14688;SDS011;7432;48.728;9.154;2024-01-11T04:45:08;41.93;;;25.90;;
14688;SDS011;7432;48.728;9.154;2024-01-11T04:47:35;41.77;;;26.37;;
14688;SDS011;7432;48.728;9.154;2024-01-11T04:50:03;43.30;;;27.30;;
14688;SDS011;7432;48.728;9.154;2024-01-11T04:52:30;42.07;;;27.17;;
14688;SDS011;7432;48.728;9.154;2024-01-11T04:54:56;45.37;;;28.10;;
14688;SDS011;7432;48.728;9.154;2024-01-11T04:57:23;44.03;;;27.67;;
14688;SDS011;7432;48.728;9.154;2024-01-11T04:59:50;42.83;;;26.67;;
14688;SDS011;7432;48.728;9.154;2024-01-11T05:02:18;40.67;;;27.13;;
14688;SDS011;7432;48.728;9.154;2024-01-11T05:04:47;43.93;;;27.57;;
14688;SDS011;7432;48.728;9.154;2024-01-11T05:07:14;41.03;;;26.17;;
14688;SDS011;7432;48.728;9.154;2024-01-11T05:09:40;43.53;;;27.53;;
14688;SDS011;7432;48.728;9.154;2024-01-11T05:12:07;42.43;;;26.83;;
14688;SDS011;7432;48.728;9.154;2024-01-11T05:14:33;46.07;;;27.43;;
14688;SDS011;7432;48.728;9.154;2024-01-11T05:17:01;44.90;;;28.63;;
14688;SDS011;7432;48.728;9.154;2024-01-11T05:19:27;47.80;;;29.50;;
14688;SDS011;7432;48.728;9.154;2024-01-11T05:21:54;46.63;;;29.10;;
14688;SDS011;7432;48.728;9.154;2024-01-11T05:24:20;42.00;;;27.83;;
14688;SDS011;7432;48.728;9.154;2024-01-11T05:26:46;46.27;;;26.67;;
14688;SDS011;7432;48.728;9.154;2024-01-11T05:29:13;47.40;;;29.53;;
14688;SDS011;7432;48.728;9.154;2024-01-11T05:31:39;46.03;;;29.47;;
14688;SDS011;7432;48.728;9.154;2024-01-11T05:34:07;44.37;;;27.43;;
14688;SDS011;7432;48.728;9.154;2024-01-11T05:36:37;47.80;;;29.67;;
14688;SDS011;7432;48.728;9.154;2024-01-11T05:39:03;53.27;;;31.83;;
14688;SDS011;7432;48.728;9.154;2024-01-11T05:41:29;48.00;;;30.37;;
14688;SDS011;7432;48.728;9.154;2024-01-11T05:43:56;47.13;;;29.73;;
14688;SDS011;7432;48.728;9.154;2024-01-11T05:46:22;50.30;;;29.23;;
14688;SDS011;7432;48.728;9.154;2024-01-11T05:48:48;42.63;;;27.67;;
14688;SDS011;7432;48.728;9.154;2024-01-11T05:51:16;46.63;;;29.50;;
14688;SDS011;7432;48.728;9.154;2024-01-11T05:53:42;60.70;;;36.20;;
14688;SDS011;7432;48.728;9.154;2024-01-11T05:56:09;64.80;;;38.83;;
14688;SDS011;7432;48.728;9.154;2024-01-11T05:58:36;70.47;;;39.90;;
14688;SDS011;7432;48.728;9.154;2024-01-11T06:01:03;121.40;;;58.27;;
14688;SDS011;7432;48.728;9.154;2024-01-11T06:03:29;137.27;;;62.33;;
14688;SDS011;7432;48.728;9.154;2024-01-11T06:05:59;143.53;;;68.33;;
14688;SDS011;7432;48.728;9.154;2024-01-11T06:08:26;91.27;;;48.73;;
14688;SDS011;7432;48.728;9.154;2024-01-11T06:10:53;86.03;;;47.03;;
14688;SDS011;7432;48.728;9.154;2024-01-11T06:13:19;76.70;;;40.73;;
14688;SDS011;7432;48.728;9.154;2024-01-11T06:15:45;56.23;;;33.90;;
14688;SDS011;7432;48.728;9.154;2024-01-11T06:18:12;48.87;;;30.00;;
14688;SDS011;7432;48.728;9.154;2024-01-11T06:20:38;45.47;;;29.13;;
14688;SDS011;7432;48.728;9.154;2024-01-11T06:23:04;50.73;;;31.43;;
14688;SDS011;7432;48.728;9.154;2024-01-11T06:25:32;51.63;;;32.37;;
14688;SDS011;7432;48.728;9.154;2024-01-11T06:27:59;48.67;;;31.33;;
14688;SDS011;7432;48.728;9.154;2024-01-11T06:30:25;46.13;;;28.50;;
14688;SDS011;7432;48.728;9.154;2024-01-11T06:32:52;43.27;;;28.40;;
14688;SDS011;7432;48.728;9.154;2024-01-11T06:35:18;48.67;;;29.37;;
14688;SDS011;7432;48.728;9.154;2024-01-11T06:37:45;45.03;;;27.67;;
14688;SDS011;7432;48.728;9.154;2024-01-11T06:40:11;41.47;;;25.93;;
14688;SDS011;7432;48.728;9.154;2024-01-11T06:42:39;42.87;;;25.57;;
14688;SDS011;7432;48.728;9.154;2024-01-11T06:45:06;47.50;;;29.07;;
14688;SDS011;7432;48.728;9.154;2024-01-11T06:47:33;48.03;;;29.40;;
14688;SDS011;7432;48.728;9.154;2024-01-11T06:50:00;45.90;;;28.60;;
14688;SDS011;7432;48.728;9.154;2024-01-11T06:52:27;44.40;;;27.60;;
14688;SDS011;7432;48.728;9.154;2024-01-11T06:54:54;44.37;;;28.63;;
14688;SDS011;7432;48.728;9.154;2024-01-11T06:57:20;41.70;;;26.30;;
14688;SDS011;7432;48.728;9.154;2024-01-11T06:59:48;45.83;;;29.40;;
14688;SDS011;7432;48.728;9.154;2024-01-11T07:02:15;44.63;;;29.33;;
14688;SDS011;7432;48.728;9.154;2024-01-11T07:04:43;45.40;;;28.90;;
14688;SDS011;7432;48.728;9.154;2024-01-11T07:07:09;42.63;;;28.97;;
14688;SDS011;7432;48.728;9.154;2024-01-11T07:09:36;46.10;;;29.23;;
14688;SDS011;7432;48.728;9.154;2024-01-11T07:12:02;43.00;;;28.37;;
14688;SDS011;7432;48.728;9.154;2024-01-11T07:14:29;47.30;;;28.57;;
14688;SDS011;7432;48.728;9.154;2024-01-11T07:16:57;52.00;;;30.70;;
14688;SDS011;7432;48.728;9.154;2024-01-11T07:19:23;45.77;;;27.40;;
14688;SDS011;7432;48.728;9.154;2024-01-11T07:21:50;45.93;;;29.67;;
14688;SDS011;7432;48.728;9.154;2024-01-11T07:24:16;47.23;;;28.80;;
14688;SDS011;7432;48.728;9.154;2024-01-11T07:26:43;48.73;;;30.67;;
14688;SDS011;7432;48.728;9.154;2024-01-11T07:29:10;48.93;;;29.13;;
14688;SDS011;7432;48.728;9.154;2024-01-11T07:31:36;46.53;;;29.63;;
14688;SDS011;7432;48.728;9.154;2024-01-11T07:34:04;43.63;;;29.60;;
14688;SDS011;7432;48.728;9.154;2024-01-11T07:36:30;44.07;;;29.40;;
14688;SDS011;7432;48.728;9.154;2024-01-11T07:38:56;40.83;;;28.37;;
14688;SDS011;7432;48.728;9.154;2024-01-11T07:41:23;49.17;;;28.33;;
14688;SDS011;7432;48.728;9.154;2024-01-11T07:43:49;43.60;;;28.10;;
14688;SDS011;7432;48.728;9.154;2024-01-11T07:46:16;45.70;;;28.63;;
14688;SDS011;7432;48.728;9.154;2024-01-11T07:48:42;45.23;;;29.77;;
14688;SDS011;7432;48.728;9.154;2024-01-11T07:51:10;45.53;;;27.43;;
14688;SDS011;7432;48.728;9.154;2024-01-11T07:53:36;46.57;;;29.87;;
14688;SDS011;7432;48.728;9.154;2024-01-11T07:56:02;50.03;;;30.53;;
14688;SDS011;7432;48.728;9.154;2024-01-11T07:58:29;47.70;;;30.13;;
14688;SDS011;7432;48.728;9.154;2024-01-11T08:00:55;47.20;;;28.40;;
14688;SDS011;7432;48.728;9.154;2024-01-11T08:03:22;52.63;;;31.70;;
14688;SDS011;7432;48.728;9.154;2024-01-11T08:05:48;52.50;;;32.40;;
14688;SDS011;7432;48.728;9.154;2024-01-11T08:08:16;40.27;;;27.50;;
14688;SDS011;7432;48.728;9.154;2024-01-11T08:10:43;43.27;;;27.37;;
14688;SDS011;7432;48.728;9.154;2024-01-11T08:13:09;37.33;;;27.07;;
14688;SDS011;7432;48.728;9.154;2024-01-11T08:15:37;37.03;;;26.87;;
14688;SDS011;7432;48.728;9.154;2024-01-11T08:18:04;39.17;;;25.63;;
14688;SDS011;7432;48.728;9.154;2024-01-11T08:20:30;36.13;;;26.57;;
14688;SDS011;7432;48.728;9.154;2024-01-11T08:22:57;37.13;;;26.30;;
14688;SDS011;7432;48.728;9.154;2024-01-11T08:25:25;36.50;;;26.83;;
14688;SDS011;7432;48.728;9.154;2024-01-11T08:27:51;34.97;;;26.33;;
14688;SDS011;7432;48.728;9.154;2024-01-11T08:30:18;40.23;;;28.23;;
14688;SDS011;7432;48.728;9.154;2024-01-11T08:32:45;42.23;;;27.23;;
14688;SDS011;7432;48.728;9.154;2024-01-11T08:35:11;36.20;;;28.43;;
14688;SDS011;7432;48.728;9.154;2024-01-11T08:37:38;42.43;;;27.87;;
14688;SDS011;7432;48.728;9.154;2024-01-11T08:40:05;38.67;;;27.97;;
14688;SDS011;7432;48.728;9.154;2024-01-11T08:42:33;39.10;;;27.50;;
14688;SDS011;7432;48.728;9.154;2024-01-11T08:45:00;40.70;;;28.33;;
14688;SDS011;7432;48.728;9.154;2024-01-11T08:47:31;41.90;;;29.13;;
14688;SDS011;7432;48.728;9.154;2024-01-11T08:49:58;43.37;;;29.03;;
14688;SDS011;7432;48.728;9.154;2024-01-11T08:52:24;45.10;;;29.17;;
14688;SDS011;7432;48.728;9.154;2024-01-11T08:54:50;45.43;;;30.20;;
14688;SDS011;7432;48.728;9.154;2024-01-11T08:57:17;44.93;;;28.93;;
14688;SDS011;7432;48.728;9.154;2024-01-11T08:59:45;42.63;;;29.50;;
14688;SDS011;7432;48.728;9.154;2024-01-11T09:02:11;43.67;;;29.03;;
14688;SDS011;7432;48.728;9.154;2024-01-11T09:04:37;41.20;;;30.77;;
14688;SDS011;7432;48.728;9.154;2024-01-11T09:07:04;51.93;;;31.73;;
14688;SDS011;7432;48.728;9.154;2024-01-11T09:09:30;45.50;;;29.80;;
14688;SDS011;7432;48.728;9.154;2024-01-11T09:11:57;44.30;;;29.50;;
14688;SDS011;7432;48.728;9.154;2024-01-11T09:14:23;48.60;;;29.87;;
14688;SDS011;7432;48.728;9.154;2024-01-11T09:16:51;44.70;;;29.53;;
14688;SDS011;7432;48.728;9.154;2024-01-11T09:19:17;44.73;;;29.80;;
14688;SDS011;7432;48.728;9.154;2024-01-11T09:21:44;54.13;;;33.37;;
14688;SDS011;7432;48.728;9.154;2024-01-11T09:24:10;56.03;;;32.97;;
14688;SDS011;7432;48.728;9.154;2024-01-11T09:26:36;79.70;;;43.13;;
14688;SDS011;7432;48.728;9.154;2024-01-11T09:29:03;56.60;;;33.77;;
14688;SDS011;7432;48.728;9.154;2024-01-11T09:31:29;46.47;;;31.33;;
14688;SDS011;7432;48.728;9.154;2024-01-11T09:33:57;47.00;;;31.33;;
14688;SDS011;7432;48.728;9.154;2024-01-11T09:36:23;45.83;;;29.30;;
14688;SDS011;7432;48.728;9.154;2024-01-11T09:38:50;46.73;;;31.27;;
14688;SDS011;7432;48.728;9.154;2024-01-11T09:41:16;43.87;;;29.63;;
14688;SDS011;7432;48.728;9.154;2024-01-11T09:43:43;45.67;;;29.27;;
14688;SDS011;7432;48.728;9.154;2024-01-11T09:46:09;42.67;;;28.90;;
14688;SDS011;7432;48.728;9.154;2024-01-11T09:48:38;47.50;;;29.67;;
14688;SDS011;7432;48.728;9.154;2024-01-11T09:51:08;44.07;;;28.77;;
14688;SDS011;7432;48.728;9.154;2024-01-11T09:53:37;47.10;;;30.40;;
14688;SDS011;7432;48.728;9.154;2024-01-11T09:56:05;48.17;;;30.90;;
14688;SDS011;7432;48.728;9.154;2024-01-11T09:58:34;43.70;;;30.40;;
14688;SDS011;7432;48.728;9.154;2024-01-11T10:01:02;47.57;;;30.47;;
14688;SDS011;7432;48.728;9.154;2024-01-11T10:03:29;45.23;;;29.50;;
14688;SDS011;7432;48.728;9.154;2024-01-11T10:05:57;48.77;;;32.50;;
14688;SDS011;7432;48.728;9.154;2024-01-11T10:08:25;50.13;;;32.00;;
14688;SDS011;7432;48.728;9.154;2024-01-11T10:10:53;45.67;;;30.43;;
14688;SDS011;7432;48.728;9.154;2024-01-11T10:13:21;46.20;;;30.43;;
14688;SDS011;7432;48.728;9.154;2024-01-11T10:15:53;45.50;;;29.83;;
14688;SDS011;7432;48.728;9.154;2024-01-11T10:18:31;46.03;;;30.23;;
14688;SDS011;7432;48.728;9.154;2024-01-11T10:20:57;48.03;;;30.57;;
14688;SDS011;7432;48.728;9.154;2024-01-11T10:23:23;47.00;;;30.17;;
14688;SDS011;7432;48.728;9.154;2024-01-11T10:25:51;49.00;;;31.37;;
14688;SDS011;7432;48.728;9.154;2024-01-11T10:28:18;41.90;;;28.67;;
14688;SDS011;7432;48.728;9.154;2024-01-11T10:30:45;43.83;;;29.73;;
14688;SDS011;7432;48.728;9.154;2024-01-11T10:33:12;42.47;;;30.70;;
14688;SDS011;7432;48.728;9.154;2024-01-11T10:35:38;41.60;;;28.17;;
14688;SDS011;7432;48.728;9.154;2024-01-11T10:38:05;49.93;;;30.57;;
14688;SDS011;7432;48.728;9.154;2024-01-11T10:40:35;45.97;;;30.67;;
14688;SDS011;7432;48.728;9.154;2024-01-11T10:43:03;40.80;;;30.67;;
14688;SDS011;7432;48.728;9.154;2024-01-11T10:45:36;46.43;;;30.23;;
14688;SDS011;7432;48.728;9.154;2024-01-11T10:48:06;45.27;;;30.73;;
14688;SDS011;7432;48.728;9.154;2024-01-11T10:50:34;45.80;;;30.03;;
14688;SDS011;7432;48.728;9.154;2024-01-11T10:53:03;47.87;;;30.77;;
14688;SDS011;7432;48.728;9.154;2024-01-11T10:55:31;43.03;;;30.20;;
14688;SDS011;7432;48.728;9.154;2024-01-11T10:57:59;46.77;;;30.53;;
14688;SDS011;7432;48.728;9.154;2024-01-11T11:00:27;49.60;;;32.17;;
14688;SDS011;7432;48.728;9.154;2024-01-11T11:02:55;48.23;;;31.37;;
14688;SDS011;7432;48.728;9.154;2024-01-11T11:05:21;43.93;;;30.20;;
14688;SDS011;7432;48.728;9.154;2024-01-11T11:07:49;44.87;;;29.83;;
14688;SDS011;7432;48.728;9.154;2024-01-11T11:10:16;48.13;;;31.77;;
14688;SDS011;7432;48.728;9.154;2024-01-11T11:12:44;47.80;;;31.17;;
14688;SDS011;7432;48.728;9.154;2024-01-11T11:15:11;45.17;;;30.80;;
14688;SDS011;7432;48.728;9.154;2024-01-11T11:17:39;49.07;;;32.93;;
14688;SDS011;7432;48.728;9.154;2024-01-11T11:20:07;45.87;;;31.10;;
14688;SDS011;7432;48.728;9.154;2024-01-11T11:22:34;44.90;;;29.97;;
14688;SDS011;7432;48.728;9.154;2024-01-11T11:25:04;47.40;;;30.07;;
14688;SDS011;7432;48.728;9.154;2024-01-11T11:27:33;48.30;;;31.17;;
14688;SDS011;7432;48.728;9.154;2024-01-11T11:29:59;46.50;;;31.90;;
14688;SDS011;7432;48.728;9.154;2024-01-11T11:32:34;46.03;;;32.23;;
14688;SDS011;7432;48.728;9.154;2024-01-11T11:35:03;49.60;;;30.50;;
14688;SDS011;7432;48.728;9.154;2024-01-11T11:37:30;48.43;;;33.10;;
14688;SDS011;7432;48.728;9.154;2024-01-11T11:39:58;49.97;;;31.30;;
14688;SDS011;7432;48.728;9.154;2024-01-11T11:42:25;46.03;;;31.43;;
14688;SDS011;7432;48.728;9.154;2024-01-11T11:44:51;47.37;;;30.50;;
14688;SDS011;7432;48.728;9.154;2024-01-11T11:47:18;45.30;;;30.20;;
14688;SDS011;7432;48.728;9.154;2024-01-11T11:52:36;46.80;;;31.37;;
14688;SDS011;7432;48.728;9.154;2024-01-11T11:55:03;45.80;;;30.73;;
14688;SDS011;7432;48.728;9.154;2024-01-11T11:57:32;50.50;;;31.13;;
14688;SDS011;7432;48.728;9.154;2024-01-11T11:59:59;49.13;;;32.47;;
14688;SDS011;7432;48.728;9.154;2024-01-11T12:02:30;44.80;;;30.90;;
14688;SDS011;7432;48.728;9.154;2024-01-11T12:04:56;46.30;;;30.17;;
14688;SDS011;7432;48.728;9.154;2024-01-11T12:07:24;47.63;;;33.00;;
14688;SDS011;7432;48.728;9.154;2024-01-11T12:09:50;48.83;;;32.50;;
14688;SDS011;7432;48.728;9.154;2024-01-11T12:12:17;49.03;;;31.80;;
14688;SDS011;7432;48.728;9.154;2024-01-11T12:14:46;46.23;;;31.77;;
14688;SDS011;7432;48.728;9.154;2024-01-11T12:17:12;47.77;;;32.30;;
14688;SDS011;7432;48.728;9.154;2024-01-11T12:19:39;47.97;;;30.93;;
14688;SDS011;7432;48.728;9.154;2024-01-11T12:22:05;44.83;;;30.67;;
14688;SDS011;7432;48.728;9.154;2024-01-11T12:24:33;46.63;;;32.33;;
14688;SDS011;7432;48.728;9.154;2024-01-11T12:27:00;50.33;;;31.50;;
14688;SDS011;7432;48.728;9.154;2024-01-11T12:29:28;44.13;;;30.80;;
14688;SDS011;7432;48.728;9.154;2024-01-11T12:31:55;48.33;;;31.43;;
14688;SDS011;7432;48.728;9.154;2024-01-11T12:34:22;48.30;;;31.43;;
14688;SDS011;7432;48.728;9.154;2024-01-11T12:36:49;43.77;;;30.30;;
14688;SDS011;7432;48.728;9.154;2024-01-11T12:39:17;49.37;;;33.30;;
14688;SDS011;7432;48.728;9.154;2024-01-11T12:41:45;61.17;;;37.67;;
14688;SDS011;7432;48.728;9.154;2024-01-11T12:44:12;55.17;;;35.87;;
14688;SDS011;7432;48.728;9.154;2024-01-11T12:46:39;53.47;;;34.23;;
14688;SDS011;7432;48.728;9.154;2024-01-11T12:49:06;44.27;;;31.70;;
14688;SDS011;7432;48.728;9.154;2024-01-11T12:51:35;44.40;;;31.33;;
14688;SDS011;7432;48.728;9.154;2024-01-11T12:54:02;41.43;;;30.73;;
14688;SDS011;7432;48.728;9.154;2024-01-11T12:56:29;44.03;;;30.70;;
14688;SDS011;7432;48.728;9.154;2024-01-11T12:59:06;43.53;;;30.03;;
14688;SDS011;7432;48.728;9.154;2024-01-11T13:01:33;45.47;;;31.17;;
14688;SDS011;7432;48.728;9.154;2024-01-11T13:04:00;43.43;;;29.40;;
14688;SDS011;7432;48.728;9.154;2024-01-11T13:06:27;46.13;;;30.87;;
14688;SDS011;7432;48.728;9.154;2024-01-11T13:08:55;46.97;;;31.07;;
14688;SDS011;7432;48.728;9.154;2024-01-11T13:11:21;40.83;;;28.83;;
14688;SDS011;7432;48.728;9.154;2024-01-11T13:13:49;44.87;;;29.17;;
14688;SDS011;7432;48.728;9.154;2024-01-11T13:16:17;46.90;;;30.40;;
14688;SDS011;7432;48.728;9.154;2024-01-11T13:18:44;42.97;;;30.23;;
14688;SDS011;7432;48.728;9.154;2024-01-11T13:21:10;43.77;;;31.03;;
14688;SDS011;7432;48.728;9.154;2024-01-11T13:23:37;44.23;;;29.50;;
14688;SDS011;7432;48.728;9.154;2024-01-11T13:26:04;51.63;;;30.57;;
14688;SDS011;7432;48.728;9.154;2024-01-11T13:28:31;46.03;;;31.50;;
14688;SDS011;7432;48.728;9.154;2024-01-11T13:30:58;46.37;;;30.60;;
14688;SDS011;7432;48.728;9.154;2024-01-11T13:33:26;45.20;;;30.10;;
14688;SDS011;7432;48.728;9.154;2024-01-11T13:35:53;44.77;;;30.70;;
14688;SDS011;7432;48.728;9.154;2024-01-11T13:38:19;46.70;;;31.67;;
14688;SDS011;7432;48.728;9.154;2024-01-11T13:40:45;43.33;;;29.70;;
14688;SDS011;7432;48.728;9.154;2024-01-11T13:43:12;42.87;;;30.63;;
14688;SDS011;7432;48.728;9.154;2024-01-11T13:45:38;46.37;;;29.77;;
14688;SDS011;7432;48.728;9.154;2024-01-11T13:48:05;43.83;;;29.40;;
14688;SDS011;7432;48.728;9.154;2024-01-11T13:50:33;42.90;;;29.87;;
14688;SDS011;7432;48.728;9.154;2024-01-11T13:53:00;47.13;;;30.37;;
14688;SDS011;7432;48.728;9.154;2024-01-11T13:55:26;44.10;;;30.20;;
14688;SDS011;7432;48.728;9.154;2024-01-11T13:57:54;45.20;;;31.23;;
14688;SDS011;7432;48.728;9.154;2024-01-11T14:00:21;44.40;;;30.07;;
14688;SDS011;7432;48.728;9.154;2024-01-11T14:02:47;45.23;;;30.27;;
14688;SDS011;7432;48.728;9.154;2024-01-11T14:05:13;43.80;;;30.57;;
14688;SDS011;7432;48.728;9.154;2024-01-11T14:07:43;42.47;;;30.20;;
14688;SDS011;7432;48.728;9.154;2024-01-11T14:10:11;43.63;;;31.43;;
14688;SDS011;7432;48.728;9.154;2024-01-11T14:12:38;45.17;;;29.83;;
14688;SDS011;7432;48.728;9.154;2024-01-11T14:15:06;46.90;;;30.03;;
14688;SDS011;7432;48.728;9.154;2024-01-11T14:17:36;44.93;;;31.07;;
14688;SDS011;7432;48.728;9.154;2024-01-11T14:20:03;45.13;;;29.23;;
14688;SDS011;7432;48.728;9.154;2024-01-11T14:22:34;42.03;;;29.03;;
14688;SDS011;7432;48.728;9.154;2024-01-11T14:25:02;50.20;;;31.10;;
14688;SDS011;7432;48.728;9.154;2024-01-11T14:27:29;49.73;;;32.07;;
14688;SDS011;7432;48.728;9.154;2024-01-11T14:29:55;52.83;;;32.20;;
14688;SDS011;7432;48.728;9.154;2024-01-11T14:32:22;48.47;;;32.43;;
14688;SDS011;7432;48.728;9.154;2024-01-11T14:34:48;46.50;;;29.43;;